createdAt,value
2023-04-24T00:00:52.227Z,0.30
2023-04-24T00:03:22.319Z,0.40
2023-04-24T00:05:49.872Z,0.30
2023-04-24T00:08:17.483Z,0.30
2023-04-24T00:10:45.002Z,0.33
2023-04-24T00:13:12.331Z,0.40
2023-04-24T00:15:39.724Z,0.30
2023-04-24T00:18:07.379Z,0.30
2023-04-24T00:20:36.919Z,0.20
2023-04-24T00:23:04.740Z,0.20
2023-04-24T00:25:32.281Z,0.20
2023-04-24T00:27:59.746Z,0.20
2023-04-24T00:30:27.102Z,0.30
2023-04-24T00:32:54.562Z,0.83
2023-04-24T00:35:22.120Z,0.30
2023-04-24T00:37:49.590Z,1.00
2023-04-24T00:40:17.016Z,0.30
2023-04-24T00:42:46.225Z,0.30
2023-04-24T00:45:14.516Z,0.30
2023-04-24T00:47:43.683Z,0.20
2023-04-24T00:50:12.498Z,0.30
2023-04-24T00:52:42.084Z,0.43
2023-04-24T00:55:10.157Z,0.30
2023-04-24T00:57:38.489Z,0.20
2023-04-24T01:00:09.131Z,0.20
2023-04-24T01:02:36.733Z,1.07
2023-04-24T01:05:04.851Z,0.30
2023-04-24T01:07:32.820Z,0.20
2023-04-24T01:10:00.573Z,0.30
2023-04-24T01:12:27.927Z,0.20
2023-04-24T01:14:58.538Z,0.20
2023-04-24T01:17:26.412Z,0.30
2023-04-24T01:19:57.996Z,0.23
2023-04-24T01:22:25.568Z,0.30
2023-04-24T01:24:54.194Z,0.30
2023-04-24T01:27:21.664Z,0.20
2023-04-24T01:29:50.526Z,0.23
2023-04-24T01:32:18.168Z,0.30
2023-04-24T01:34:46.491Z,0.20
2023-04-24T01:37:14.059Z,0.43
2023-04-24T01:39:42.091Z,0.30
2023-04-24T01:42:09.890Z,0.30
2023-04-24T01:44:37.419Z,0.30
2023-04-24T01:47:05.187Z,0.37
2023-04-24T01:49:34.073Z,0.33
2023-04-24T01:52:01.625Z,0.30
2023-04-24T01:54:29.039Z,0.40
2023-04-24T01:56:56.659Z,0.20
2023-04-24T01:59:26.628Z,0.33
2023-04-24T02:01:54.048Z,0.30
2023-04-24T02:04:21.493Z,0.40
2023-04-24T02:06:48.859Z,0.20
2023-04-24T02:09:16.248Z,0.40
2023-04-24T02:11:43.637Z,0.30
2023-04-24T02:14:11.092Z,0.40
2023-04-24T02:16:38.553Z,0.33
2023-04-24T02:19:06.294Z,0.43
2023-04-24T02:21:34.029Z,0.63
2023-04-24T02:24:01.616Z,0.50
2023-04-24T02:26:29.253Z,0.73
2023-04-24T02:28:56.737Z,0.70
2023-04-24T02:31:24.174Z,0.43
2023-04-24T02:33:51.566Z,0.50
2023-04-24T02:36:19.034Z,0.80
2023-04-24T02:38:46.724Z,0.70
2023-04-24T02:41:14.098Z,0.63
2023-04-24T02:43:41.567Z,0.63
2023-04-24T02:46:09.067Z,0.57
2023-04-24T02:48:36.501Z,0.60
2023-04-24T02:51:04.401Z,0.70
2023-04-24T02:53:32.130Z,0.50
2023-04-24T02:55:59.895Z,0.87
2023-04-24T02:58:27.545Z,0.50
2023-04-24T03:01:01.776Z,0.43
2023-04-24T03:03:29.388Z,0.50
2023-04-24T03:05:56.983Z,0.67
2023-04-24T03:08:24.690Z,0.80
2023-04-24T03:10:54.761Z,0.50
2023-04-24T03:13:22.151Z,0.60
2023-04-24T03:15:49.553Z,0.50
2023-04-24T03:18:17.064Z,1.07
2023-04-24T03:20:46.591Z,1.50
2023-04-24T03:23:14.067Z,0.90
2023-04-24T03:25:43.966Z,0.83
2023-04-24T03:28:11.322Z,1.00
2023-04-24T03:30:38.807Z,0.83
2023-04-24T03:33:06.233Z,0.60
2023-04-24T03:35:33.724Z,0.70
2023-04-24T03:38:01.304Z,0.90
2023-04-24T03:40:30.838Z,1.13
2023-04-24T03:42:58.325Z,0.80
2023-04-24T03:45:25.720Z,0.90
2023-04-24T03:47:53.109Z,0.70
2023-04-24T03:50:20.816Z,0.80
2023-04-24T03:52:48.256Z,0.70
2023-04-24T03:55:15.936Z,0.57
2023-04-24T03:57:43.286Z,0.80
2023-04-24T04:00:11.541Z,0.90
2023-04-24T04:02:39.018Z,0.73
2023-04-24T04:05:06.767Z,0.70
2023-04-24T04:07:34.340Z,1.00
2023-04-24T04:10:01.796Z,1.10
2023-04-24T04:12:29.130Z,1.03
2023-04-24T04:14:56.535Z,0.90
2023-04-24T04:17:24.002Z,1.03
2023-04-24T04:19:51.960Z,1.20
2023-04-24T04:22:19.352Z,1.20
2023-04-24T04:24:47.482Z,1.20
2023-04-24T04:27:15.077Z,1.67
2023-04-24T04:29:43.511Z,1.47
2023-04-24T04:32:11.273Z,1.77
2023-04-24T04:34:38.895Z,1.90
2023-04-24T04:37:07.162Z,2.07
2023-04-24T04:39:34.531Z,2.30
2023-04-24T04:42:02.071Z,2.27
2023-04-24T04:44:30.582Z,2.20
2023-04-24T04:46:58.574Z,2.10
2023-04-24T04:49:26.202Z,1.90
2023-04-24T04:51:54.313Z,2.53
2023-04-24T04:54:21.702Z,2.30
2023-04-24T04:56:51.864Z,2.20
2023-04-24T04:59:19.342Z,2.60
2023-04-24T05:01:46.711Z,2.10
2023-04-24T05:04:14.240Z,2.70
2023-04-24T05:06:41.801Z,2.50
2023-04-24T05:09:09.167Z,3.13
2023-04-24T05:11:36.621Z,2.57
2023-04-24T05:14:04.130Z,2.57
2023-04-24T05:16:32.164Z,2.50
2023-04-24T05:18:59.836Z,2.73
2023-04-24T05:21:28.055Z,2.53
2023-04-24T05:23:58.510Z,2.37
2023-04-24T05:26:25.905Z,2.23
2023-04-24T05:28:53.283Z,2.10
2023-04-24T05:31:23.480Z,2.43
2023-04-24T05:33:51.008Z,2.50
2023-04-24T05:36:18.419Z,1.73
2023-04-24T05:38:45.795Z,1.60
2023-04-24T05:41:13.136Z,1.73
2023-04-24T05:43:40.540Z,2.00
2023-04-24T05:46:07.906Z,1.70
2023-04-24T05:48:35.374Z,1.43
2023-04-24T05:51:02.724Z,1.83
2023-04-24T05:53:30.199Z,1.70
2023-04-24T05:55:57.648Z,1.70
2023-04-24T05:58:25.121Z,1.60
2023-04-24T06:00:52.544Z,1.90
2023-04-24T06:03:20.210Z,1.43
2023-04-24T06:05:47.806Z,1.63
2023-04-24T06:08:15.156Z,1.60
2023-04-24T06:10:42.533Z,2.07
2023-04-24T06:13:10.025Z,2.00
2023-04-24T06:15:37.427Z,1.80
2023-04-24T06:18:05.314Z,1.80
2023-04-24T06:20:32.889Z,2.27
2023-04-24T06:23:00.272Z,2.10
2023-04-24T06:25:28.166Z,2.67
2023-04-24T06:27:56.915Z,2.23
2023-04-24T06:30:24.534Z,2.20
2023-04-24T06:32:52.432Z,2.60
2023-04-24T06:35:19.966Z,2.30
2023-04-24T06:37:47.527Z,2.70
2023-04-24T06:40:15.255Z,2.50
2023-04-24T06:42:43.720Z,2.00
2023-04-24T06:45:11.776Z,3.17
2023-04-24T06:47:39.471Z,3.17
2023-04-24T06:50:07.469Z,2.30
2023-04-24T06:52:34.817Z,2.23
2023-04-24T06:55:04.040Z,2.83
2023-04-24T06:57:33.257Z,2.50
2023-04-24T07:00:00.681Z,2.17
2023-04-24T07:02:28.175Z,2.87
2023-04-24T07:04:55.680Z,2.03
2023-04-24T07:07:25.337Z,1.67
2023-04-24T07:09:53.019Z,1.80
2023-04-24T07:12:21.765Z,2.00
2023-04-24T07:14:49.292Z,2.13
2023-04-24T07:17:16.676Z,1.90
2023-04-24T07:19:44.261Z,1.63
2023-04-24T07:22:17.896Z,1.73
2023-04-24T07:24:46.118Z,1.70
2023-04-24T07:27:13.634Z,1.70
2023-04-24T07:29:43.966Z,2.30
2023-04-24T07:32:11.616Z,1.70
2023-04-24T07:34:38.980Z,1.97
2023-04-24T07:37:06.432Z,1.80
2023-04-24T07:39:33.978Z,2.10
2023-04-24T07:42:03.501Z,1.70
2023-04-24T07:44:30.929Z,1.90
2023-04-24T07:46:58.418Z,1.93
2023-04-24T07:49:26.067Z,1.87
2023-04-24T07:51:53.616Z,1.77
2023-04-24T07:54:21.418Z,1.97
2023-04-24T07:56:49.466Z,1.83
2023-04-24T07:59:17.486Z,1.93
2023-04-24T08:01:44.939Z,1.80
2023-04-24T08:04:12.670Z,1.90
2023-04-24T08:06:40.172Z,1.63
2023-04-24T08:09:07.684Z,1.43
2023-04-24T08:11:35.004Z,1.63
2023-04-24T08:14:02.423Z,1.50
2023-04-24T08:16:29.940Z,1.83
2023-04-24T08:18:57.422Z,1.40
2023-04-24T08:21:24.942Z,1.37
2023-04-24T08:23:52.434Z,1.50
2023-04-24T08:26:19.823Z,1.63
2023-04-24T08:28:47.313Z,1.50
2023-04-24T08:31:14.776Z,1.70
2023-04-24T08:33:42.241Z,1.43
2023-04-24T08:36:09.631Z,1.80
2023-04-24T08:38:37.101Z,1.47
2023-04-24T08:41:06.269Z,1.70
2023-04-24T08:43:37.755Z,1.57
2023-04-24T08:46:09.518Z,1.40
2023-04-24T08:48:40.675Z,1.70
2023-04-24T08:51:11.083Z,1.73
2023-04-24T08:53:41.894Z,1.60
2023-04-24T08:56:09.351Z,1.50
2023-04-24T08:58:37.424Z,1.73
2023-04-24T09:01:06.586Z,1.27
2023-04-24T09:03:35.125Z,1.50
2023-04-24T09:06:03.664Z,1.53
2023-04-24T09:08:32.237Z,1.50
2023-04-24T09:11:00.291Z,1.70
2023-04-24T09:13:28.489Z,1.73
2023-04-24T09:15:58.565Z,1.90
2023-04-24T09:18:27.023Z,1.63
2023-04-24T09:21:06.237Z,1.60
2023-04-24T09:23:34.168Z,1.60
2023-04-24T09:26:03.430Z,1.70
2023-04-24T09:28:41.071Z,1.60
2023-04-24T09:31:19.610Z,1.50
2023-04-24T09:34:01.204Z,1.60
2023-04-24T09:36:42.271Z,2.03
2023-04-24T09:39:17.095Z,1.30
2023-04-24T09:41:59.902Z,2.20
2023-04-24T09:44:29.482Z,1.43
2023-04-24T09:46:59.456Z,1.47
2023-04-24T09:49:28.092Z,1.37
2023-04-24T09:52:09.550Z,1.20
2023-04-24T09:54:41.276Z,1.30
2023-04-24T09:57:10.517Z,1.37
2023-04-24T09:59:45.676Z,1.00
2023-04-24T10:02:21.287Z,1.20
2023-04-24T10:05:00.873Z,1.50
2023-04-24T10:07:29.992Z,1.50
2023-04-24T10:09:58.201Z,1.40
2023-04-24T10:12:26.512Z,1.20
2023-04-24T10:14:54.634Z,1.40
2023-04-24T10:17:23.375Z,1.43
2023-04-24T10:19:51.145Z,1.73
2023-04-24T10:22:19.441Z,1.70
2023-04-24T10:24:48.655Z,1.50
2023-04-24T10:27:16.766Z,1.53
2023-04-24T10:29:46.190Z,1.40
2023-04-24T10:32:13.620Z,1.50
2023-04-24T10:34:41.284Z,1.43
2023-04-24T10:37:08.957Z,1.93
2023-04-24T10:39:38.714Z,2.00
2023-04-24T10:42:16.985Z,1.67
2023-04-24T10:44:44.586Z,1.73
2023-04-24T10:47:15.709Z,2.70
2023-04-24T10:49:43.853Z,2.60
2023-04-24T10:52:12.086Z,1.63
2023-04-24T10:54:43.496Z,1.90
2023-04-24T10:57:25.888Z,1.90
2023-04-24T11:00:14.814Z,2.17
2023-04-24T11:02:50.059Z,1.97
2023-04-24T11:05:20.014Z,1.93
2023-04-24T11:08:17.300Z,2.00
2023-04-24T11:10:49.241Z,1.77
2023-04-24T11:13:23.600Z,2.13
2023-04-24T11:16:16.997Z,1.90
2023-04-24T11:18:52.088Z,1.97
2023-04-24T11:21:19.989Z,1.93
2023-04-24T11:23:48.190Z,2.40
2023-04-24T11:26:26.050Z,2.40
2023-04-24T11:28:53.442Z,2.30
2023-04-24T11:31:42.311Z,1.80
2023-04-24T11:34:16.034Z,2.10
2023-04-24T11:36:48.486Z,2.20
2023-04-24T11:39:16.711Z,2.03
2023-04-24T11:41:44.121Z,2.00
2023-04-24T11:44:12.873Z,1.90
2023-04-24T11:46:41.605Z,1.80
2023-04-24T11:49:09.641Z,1.83
2023-04-24T11:51:48.762Z,1.87
2023-04-24T11:54:20.888Z,1.80
2023-04-24T11:56:49.226Z,2.20
2023-04-24T11:59:16.788Z,2.10
2023-04-24T12:01:46.392Z,2.27
2023-04-24T12:04:14.766Z,2.07
2023-04-24T12:07:00.231Z,1.60
2023-04-24T12:09:27.677Z,2.00
2023-04-24T12:11:59.148Z,1.90
2023-04-24T12:14:26.753Z,1.90
2023-04-24T12:16:54.418Z,2.37
2023-04-24T12:19:23.613Z,1.60
2023-04-24T12:22:06.163Z,2.03
2023-04-24T12:24:33.859Z,2.03
2023-04-24T12:27:02.685Z,2.20
2023-04-24T12:29:33.077Z,2.10
2023-04-24T12:32:00.643Z,2.37
2023-04-24T12:34:28.133Z,1.97
2023-04-24T12:36:55.625Z,2.00
2023-04-24T12:39:25.173Z,2.20
2023-04-24T12:42:00.475Z,2.17
2023-04-24T12:44:33.006Z,2.20
2023-04-24T12:47:00.599Z,2.00
2023-04-24T12:49:29.161Z,2.10
2023-04-24T12:51:56.614Z,1.87
2023-04-24T12:54:24.421Z,2.40
2023-04-24T12:56:54.596Z,1.90
2023-04-24T12:59:22.003Z,1.77
2023-04-24T13:01:49.454Z,1.97
2023-04-24T13:04:18.296Z,1.80
2023-04-24T13:06:45.783Z,2.10
2023-04-24T13:09:13.279Z,2.53
2023-04-24T13:11:43.253Z,2.17
2023-04-24T13:14:10.890Z,2.20
2023-04-24T13:16:38.449Z,2.27
2023-04-24T13:19:05.838Z,2.30
2023-04-24T13:21:33.252Z,1.97
2023-04-24T13:24:01.037Z,2.20
2023-04-24T13:26:28.874Z,1.60
2023-04-24T13:28:56.323Z,1.90
2023-04-24T13:31:23.963Z,2.43
2023-04-24T13:33:51.430Z,2.30
2023-04-24T13:36:18.999Z,2.17
2023-04-24T13:38:46.592Z,2.30
2023-04-24T13:41:13.986Z,2.97
2023-04-24T13:43:44.052Z,2.60
2023-04-24T13:46:11.825Z,2.40
2023-04-24T13:48:39.285Z,2.40
2023-04-24T13:51:06.739Z,2.83
2023-04-24T13:53:37.225Z,2.40
2023-04-24T13:56:04.637Z,2.30
2023-04-24T13:58:32.407Z,2.17
2023-04-24T14:00:59.983Z,2.30
2023-04-24T14:03:27.692Z,2.70
2023-04-24T14:05:55.206Z,2.20
2023-04-24T14:08:22.580Z,2.40
2023-04-24T14:10:50.064Z,2.30
2023-04-24T14:13:17.847Z,2.07
2023-04-24T14:15:45.417Z,2.20
2023-04-24T14:18:13.120Z,2.87
2023-04-24T14:20:40.626Z,2.60
2023-04-24T14:23:08.594Z,2.30
2023-04-24T14:25:38.986Z,2.60
2023-04-24T14:28:09.439Z,2.60
2023-04-24T14:30:38.745Z,2.30
2023-04-24T14:33:08.518Z,2.20
2023-04-24T14:35:36.987Z,2.40
2023-04-24T14:38:04.357Z,2.03
2023-04-24T14:40:58.396Z,2.37
2023-04-24T14:43:19.908Z,2.30
2023-04-24T14:45:47.304Z,2.20
2023-04-24T14:48:18.500Z,2.20
2023-04-24T14:50:46.816Z,2.00
2023-04-24T14:53:14.391Z,2.10
2023-04-24T14:55:41.877Z,2.60
2023-04-24T14:58:09.346Z,2.20
2023-04-24T15:00:36.748Z,1.73
2023-04-24T15:03:05.055Z,2.10
2023-04-24T15:05:33.484Z,2.20
2023-04-24T15:08:01.053Z,1.93
2023-04-24T15:10:28.583Z,2.40
2023-04-24T15:12:56.522Z,2.20
2023-04-24T15:15:23.925Z,2.30
2023-04-24T15:17:51.537Z,2.07
2023-04-24T15:20:19.411Z,2.20
2023-04-24T15:22:47.078Z,2.30
2023-04-24T15:25:14.697Z,2.20
2023-04-24T15:27:46.398Z,2.20
2023-04-24T15:30:14.640Z,2.50
2023-04-24T15:32:42.381Z,2.53
2023-04-24T15:35:10.692Z,2.17
2023-04-24T15:37:39.743Z,1.93
2023-04-24T15:40:08.656Z,2.33
2023-04-24T15:42:36.750Z,2.93
2023-04-24T15:45:04.729Z,2.60
2023-04-24T15:47:34.493Z,2.67
2023-04-24T15:50:02.181Z,2.60
2023-04-24T15:52:29.610Z,2.77
2023-04-24T15:54:57.078Z,2.57
2023-04-24T15:57:24.540Z,2.70
2023-04-24T15:59:51.909Z,2.60
2023-04-24T16:02:20.901Z,2.47
2023-04-24T16:04:49.909Z,2.17
2023-04-24T16:07:21.019Z,2.30
2023-04-24T16:09:48.366Z,2.20
2023-04-24T16:12:15.870Z,2.27
2023-04-24T16:14:45.398Z,2.07
2023-04-24T16:17:14.849Z,2.10
2023-04-24T16:19:42.347Z,2.10
2023-04-24T16:22:11.112Z,2.10
2023-04-24T16:24:39.278Z,2.13
2023-04-24T16:27:06.805Z,2.10
2023-04-24T16:29:34.384Z,2.30
2023-04-24T16:32:02.024Z,2.30
2023-04-24T16:34:29.465Z,2.00
2023-04-24T16:36:56.928Z,1.90
2023-04-24T16:39:24.395Z,2.23
2023-04-24T16:41:53.163Z,2.50
2023-04-24T16:44:21.064Z,2.40
2023-04-24T16:46:48.467Z,2.37
2023-04-24T16:49:15.983Z,2.50
2023-04-24T16:51:43.697Z,2.00
2023-04-24T16:54:11.209Z,2.60
2023-04-24T16:56:38.637Z,2.50
2023-04-24T16:59:07.258Z,2.70
2023-04-24T17:01:35.461Z,2.50
2023-04-24T17:04:02.985Z,2.50
2023-04-24T17:06:31.450Z,3.27
2023-04-24T17:09:00.631Z,2.47
2023-04-24T17:11:29.907Z,3.03
2023-04-24T17:14:01.360Z,3.47
2023-04-24T17:16:29.658Z,2.70
2023-04-24T17:18:57.254Z,3.30
2023-04-24T17:21:25.076Z,2.73
2023-04-24T17:23:52.562Z,2.87
2023-04-24T17:26:20.624Z,3.50
2023-04-24T17:28:48.284Z,3.43
2023-04-24T17:31:16.041Z,3.40
2023-04-24T17:33:43.669Z,3.80
2023-04-24T17:36:11.185Z,4.03
2023-04-24T17:38:38.909Z,3.60
2023-04-24T17:41:06.996Z,3.30
2023-04-24T17:43:34.682Z,3.80
2023-04-24T17:46:02.657Z,3.60
2023-04-24T17:48:30.123Z,4.00
2023-04-24T17:50:57.543Z,3.77
2023-04-24T17:53:24.963Z,3.90
2023-04-24T17:55:54.445Z,3.90
2023-04-24T17:58:22.472Z,3.83
2023-04-24T18:00:58.984Z,4.17
2023-04-24T18:03:27.129Z,4.10
2023-04-24T18:05:55.063Z,5.30
2023-04-24T18:08:23.245Z,4.40
2023-04-24T18:10:52.206Z,4.07
2023-04-24T18:13:20.848Z,4.07
2023-04-24T18:15:49.740Z,4.07
2023-04-24T18:18:18.895Z,4.70
2023-04-24T18:20:47.962Z,4.30
2023-04-24T18:23:17.620Z,4.17
2023-04-24T18:25:46.305Z,4.07
2023-04-24T18:28:17.879Z,4.80
2023-04-24T18:30:46.939Z,4.10
2023-04-24T18:33:19.315Z,4.17
2023-04-24T18:35:47.376Z,4.80
2023-04-24T18:38:14.788Z,3.80
2023-04-24T18:40:46.392Z,3.90
2023-04-24T18:43:14.476Z,4.30
2023-04-24T18:45:41.983Z,3.97
2023-04-24T18:48:09.497Z,4.00
2023-04-24T18:50:39.447Z,4.87
2023-04-24T18:53:14.381Z,4.33
2023-04-24T18:55:43.298Z,5.80
2023-04-24T18:58:11.726Z,3.73
2023-04-24T19:00:40.598Z,6.37
2023-04-24T19:03:11.301Z,3.70
2023-04-24T19:05:39.283Z,4.53
2023-04-24T19:08:06.823Z,4.23
2023-04-24T19:10:35.974Z,4.10
2023-04-24T19:13:04.589Z,5.10
2023-04-24T19:15:33.917Z,6.33
2023-04-24T19:18:01.551Z,4.47
2023-04-24T19:20:30.465Z,5.17
2023-04-24T19:22:58.819Z,5.50
2023-04-24T19:25:28.016Z,5.33
2023-04-24T19:27:57.123Z,5.30
2023-04-24T19:30:27.487Z,4.23
2023-04-24T19:32:57.052Z,4.53
2023-04-24T19:35:26.117Z,4.30
2023-04-24T19:37:55.650Z,4.63
2023-04-24T19:40:25.242Z,3.73
2023-04-24T19:42:53.821Z,4.10
2023-04-24T19:45:22.379Z,5.00
2023-04-24T19:47:50.286Z,4.87
2023-04-24T19:50:21.509Z,4.00
2023-04-24T19:52:50.225Z,5.73
2023-04-24T19:55:17.773Z,4.10
2023-04-24T19:57:45.743Z,5.10
2023-04-24T20:00:16.780Z,4.27
2023-04-24T20:02:44.512Z,4.07
2023-04-24T20:05:12.678Z,4.53
2023-04-24T20:07:45.748Z,4.20
2023-04-24T20:10:13.661Z,3.83
2023-04-24T20:12:41.460Z,3.77
2023-04-24T20:15:09.448Z,3.77
2023-04-24T20:17:36.808Z,3.97
2023-04-24T20:20:04.549Z,4.07
2023-04-24T20:22:39.028Z,4.00
2023-04-24T20:25:08.541Z,4.40
2023-04-24T20:27:36.538Z,4.23
2023-04-24T20:30:04.503Z,4.23
2023-04-24T20:32:34.504Z,4.73
2023-04-24T20:35:02.723Z,4.33
2023-04-24T20:37:30.140Z,3.63
2023-04-24T20:39:58.559Z,3.97
2023-04-24T20:42:26.364Z,3.87
2023-04-24T20:44:53.887Z,4.67
2023-04-24T20:47:21.389Z,4.20
2023-04-24T20:49:49.164Z,3.80
2023-04-24T20:52:16.602Z,4.10
2023-04-24T20:54:44.108Z,5.07
2023-04-24T20:57:11.477Z,4.23
2023-04-24T20:59:39.530Z,4.13
2023-04-24T21:02:07.297Z,4.37
2023-04-24T21:04:37.765Z,4.67
2023-04-24T21:07:09.554Z,4.23
2023-04-24T21:09:37.047Z,5.40
2023-04-24T21:12:04.677Z,4.13
2023-04-24T21:14:32.002Z,3.63
2023-04-24T21:17:00.373Z,4.00
2023-04-24T21:19:27.851Z,3.70
2023-04-24T21:21:55.373Z,3.90
2023-04-24T21:24:25.376Z,3.77
2023-04-24T21:26:54.552Z,3.80
2023-04-24T21:29:24.193Z,3.90
2023-04-24T21:31:54.270Z,4.10
2023-04-24T21:34:21.903Z,4.53
2023-04-24T21:36:49.415Z,4.17
2023-04-24T21:39:16.809Z,4.23
2023-04-24T21:41:46.745Z,3.70
2023-04-24T21:44:15.442Z,4.70
2023-04-24T21:46:43.133Z,4.70
2023-04-24T21:49:10.804Z,4.20
2023-04-24T21:51:40.333Z,4.40
2023-04-24T21:54:07.824Z,4.90
2023-04-24T21:56:35.556Z,5.00
2023-04-24T21:59:03.068Z,4.80
2023-04-24T22:01:34.547Z,4.83
2023-04-24T22:04:04.642Z,5.30
2023-04-24T22:06:34.037Z,5.50
2023-04-24T22:09:01.820Z,5.23
2023-04-24T22:11:29.398Z,4.50
2023-04-24T22:13:57.098Z,5.17
2023-04-24T22:16:24.684Z,5.40
2023-04-24T22:18:55.518Z,5.50
2023-04-24T22:21:23.191Z,5.20
2023-04-24T22:23:50.973Z,5.37
2023-04-24T22:26:18.840Z,5.73
2023-04-24T22:28:48.122Z,5.00
2023-04-24T22:31:16.296Z,4.57
2023-04-24T22:33:47.951Z,5.20
2023-04-24T22:36:16.061Z,5.10
2023-04-24T22:38:43.764Z,4.83
2023-04-24T22:41:11.365Z,4.73
2023-04-24T22:43:39.544Z,4.37
2023-04-24T22:46:09.973Z,4.53
2023-04-24T22:48:37.353Z,4.57
2023-04-24T22:51:04.924Z,4.17
2023-04-24T22:53:32.325Z,5.00
2023-04-24T22:56:00.221Z,4.27
2023-04-24T22:58:27.591Z,4.47
2023-04-24T23:00:54.942Z,4.10
2023-04-24T23:03:22.839Z,3.97
2023-04-24T23:05:50.901Z,4.10
2023-04-24T23:08:18.606Z,4.00
2023-04-24T23:10:48.402Z,3.90
2023-04-24T23:13:15.906Z,4.10
2023-04-24T23:15:43.432Z,4.30
2023-04-24T23:18:11.865Z,3.90
2023-04-24T23:20:39.356Z,3.50
2023-04-24T23:23:06.885Z,3.93
2023-04-24T23:25:34.996Z,3.87
2023-04-24T23:28:02.396Z,3.93
2023-04-24T23:30:30.051Z,3.97
2023-04-24T23:32:57.521Z,4.30
2023-04-24T23:35:27.805Z,4.07
2023-04-24T23:37:56.376Z,4.83
2023-04-24T23:40:24.624Z,5.03
2023-04-24T23:43:05.684Z,6.20
2023-04-24T23:45:34.990Z,4.80
2023-04-24T23:48:02.742Z,4.93
2023-04-24T23:50:30.179Z,5.10
2023-04-24T23:52:57.683Z,4.93
2023-04-24T23:55:25.265Z,5.07
2023-04-24T23:57:52.674Z,4.57
